Terminal Aerodrome Forecast
Issued by NWS Springfield, MO

Home | Current Version | Previous Version | Text Only | Print | Product List | Glossary On
Versions: 1 2 3 4 5 6 7 8 9 10 11 12 13 14 15 16 17 18 19 20 21 22 23 24 25 26 27 28 29 30 31 32 33 34 35
000
FTUS43 KSGF 220000 AAA
TAFSGF
TAF AMD
KSGF 220033Z 2201/2224 15017G23KT 6SM BR BKN008 OVC035
      WS019/20045KT
      TEMPO 2208/2212 BKN010
     FM221200 17014KT 6SM BR OVC015 WS020/20045KT
     FM221600 17016G22KT P6SM -SHRA OVC020=

USA.gov is the U.S. government's official web portal to all federal, state and local government web resources and services.